Costa Magica — IBQQ — position and weather

sailwx.info

Track history (hours):
 
Tides and Currents Weather Stations Pressure Air Temp Water Temp Dewpoint Dewpoint Depression Visibility Wind Speed Wind Dir Waves Ship Positions

Costa Magica

Last reported at 2019-Feb-22 01:50 UTC. Time now 2019-Feb-23 18:18 UTC.
Position N 14°39' W 061°44'.

Type: Ship. MMSI: 247113300.

Date/timePositionNaut miles runAvg speedWind from/ knotsBaromVisibWave heightAir tempDewpointWater temp
2019-Feb-22 01:50N 14°39' W 061°44'1310.1
2019-Feb-22 00:35N 14°35' W 061°32'211.4
2019-Feb-22 00:24N 14°35' W 061°30'511.6
2019-Feb-22 00:00N 14°35' W 061°25'611.7
2019-Feb-21 23:30N 14°35' W 061°19'611.6
2019-Feb-21 23:00N 14°35' W 061°13'611.7
2019-Feb-21 22:27N 14°35' W 061°06'3 1.5
2019-Feb-21 20:34N 14°36' W 061°04'0 0.0
2019-Feb-21 20:28N 14°36' W 061°04'0 0.0
2019-Feb-21 19:58N 14°36' W 061°04'0 0.0
2019-Feb-21 19:28N 14°36' W 061°04'0 0.0
2019-Feb-21 18:58N 14°36' W 061°04'0 0.0
2019-Feb-21 18:28N 14°36' W 061°04'0 0.0
2019-Feb-21 17:58N 14°36' W 061°04'0 0.0
2019-Feb-21 17:28N 14°36' W 061°04'0 0.0
2019-Feb-21 16:58N 14°36' W 061°04'0 0.0
2019-Feb-21 16:28N 14°36' W 061°04'0 0.0
2019-Feb-21 15:58N 14°36' W 061°04'0 0.0
2019-Feb-21 15:28N 14°36' W 061°04'0 0.0
2019-Feb-21 14:58N 14°36' W 061°04'0 0.0
2019-Feb-21 14:28N 14°36' W 061°04'0 0.0
2019-Feb-21 13:58N 14°36' W 061°04'0 0.0
2019-Feb-21 13:28N 14°36' W 061°04'0 0.0
2019-Feb-21 12:58N 14°36' W 061°04'0 0.0
2019-Feb-21 12:28N 14°36' W 061°04'0 0.0
2019-Feb-21 11:58N 14°36' W 061°04'0 0.0
2019-Feb-21 11:28N 14°36' W 061°04'1 1.6
2019-Feb-21 11:00N 14°35' W 061°04'4 8.8
2019-Feb-21 10:30N 14°35' W 061°08'610.8
2019-Feb-21 09:57N 14°35' W 061°15'510.3
2019-Feb-21 09:28N 14°35' W 061°20'511.3
2019-Feb-21 09:01N 14°35' W 061°25'611.6
2019-Feb-21 08:29N 14°35' W 061°31'2111.5
2019-Feb-21 06:38N 14°35' W 061°53'46 6.7
2019-Feb-20 23:48N 14°02' W 061°20'311.5
2019-Feb-20 23:30N 14°02' W 061°16'611.4
2019-Feb-20 23:00N 14°02' W 061°10'611.6
2019-Feb-20 22:29N 14°02' W 061°04'4 9.0
2019-Feb-20 22:00N 14°01' W 060°60'0 0.5
2019-Feb-20 21:20N 14°01' W 060°60'0 0.0
2019-Feb-20 20:59N 14°01' W 060°60'0 0.0
2019-Feb-20 20:23N 14°01' W 060°60'0 0.0
2019-Feb-20 19:47N 14°01' W 060°60'0 0.0
2019-Feb-20 19:17N 14°01' W 060°60'0 0.0
2019-Feb-20 18:41N 14°01' W 060°60'0 0.0
2019-Feb-20 18:29N 14°01' W 060°60'0 0.0
2019-Feb-20 17:53N 14°01' W 060°60'0 0.0
2019-Feb-20 17:23N 14°01' W 060°60'0 0.0
2019-Feb-20 16:56N 14°01' W 060°60'0 0.0
2019-Feb-20 16:30N 14°01' W 060°60'0 0.0
2019-Feb-20 16:00N 14°01' W 060°60'0 0.0
2019-Feb-20 15:30N 14°01' W 060°60'0 0.0
2019-Feb-20 14:59N 14°01' W 060°60'0 0.0
2019-Feb-20 14:30N 14°01' W 060°60'0 0.0
2019-Feb-20 14:00N 14°01' W 060°60'0 0.0
2019-Feb-20 13:30N 14°01' W 060°60'0 0.0
2019-Feb-20 13:00N 14°01' W 060°60'0 0.0
2019-Feb-20 12:30N 14°01' W 060°60'0 0.0
2019-Feb-20 11:59N 14°01' W 060°60'0 0.0
2019-Feb-20 11:30N 14°01' W 060°60'0 0.0
2019-Feb-20 11:00N 14°01' W 060°60'0 0.3
2019-Feb-20 10:30N 14°01' W 060°60'3 5.1
2019-Feb-20 10:00N 14°02' W 061°02'4 7.7
2019-Feb-20 09:30N 14°03' W 061°06'611.3
2019-Feb-20 09:00N 14°01' W 061°12'32 8.0
2019-Feb-20 05:01N 13°33' W 060°56'013.7
2019-Feb-20 05:00N 13°33' W 060°56'  
2019-Feb-16 11:39N 14°33' W 061°46'512.2
2019-Feb-16 11:17N 14°38' W 061°46'40 1.1
2019-Feb-14 22:01N 14°36' W 061°04'0 6.0
2019-Feb-14 21:59N 14°36' W 061°04'0 0.0
2019-Feb-14 11:05N 14°36' W 061°04'1 5.2
2019-Feb-14 10:53N 14°35' W 061°04'  
Track history (hours):
 
Tides and Currents Weather Stations Pressure Air Temp Water Temp Dewpoint Dewpoint Depression Visibility Wind Speed Wind Dir Waves Ship Positions

Costa Magica

Last reported at 2019-Feb-22 01:50 UTC. Time now 2019-Feb-23 18:18 UTC.
Position N 14°39' W 061°44'.

Type: Ship. MMSI: 247113300.

Date/timePositionNaut miles runAvg speedWind from/ knotsBaromVisibWave heightAir tempDewpointWater temp
2019-Feb-22 01:50N 14°39' W 061°44'1310.1
2019-Feb-22 00:35N 14°35' W 061°32'211.4
2019-Feb-22 00:24N 14°35' W 061°30'511.6
2019-Feb-22 00:00N 14°35' W 061°25'611.7
2019-Feb-21 23:30N 14°35' W 061°19'611.6
2019-Feb-21 23:00N 14°35' W 061°13'611.7
2019-Feb-21 22:27N 14°35' W 061°06'3 1.5
2019-Feb-21 20:34N 14°36' W 061°04'0 0.0
2019-Feb-21 20:28N 14°36' W 061°04'0 0.0
2019-Feb-21 19:58N 14°36' W 061°04'0 0.0
2019-Feb-21 19:28N 14°36' W 061°04'0 0.0
2019-Feb-21 18:58N 14°36' W 061°04'0 0.0
2019-Feb-21 18:28N 14°36' W 061°04'0 0.0
2019-Feb-21 17:58N 14°36' W 061°04'0 0.0
2019-Feb-21 17:28N 14°36' W 061°04'0 0.0
2019-Feb-21 16:58N 14°36' W 061°04'0 0.0
2019-Feb-21 16:28N 14°36' W 061°04'0 0.0
2019-Feb-21 15:58N 14°36' W 061°04'0 0.0
2019-Feb-21 15:28N 14°36' W 061°04'0 0.0
2019-Feb-21 14:58N 14°36' W 061°04'0 0.0
2019-Feb-21 14:28N 14°36' W 061°04'0 0.0
2019-Feb-21 13:58N 14°36' W 061°04'0 0.0
2019-Feb-21 13:28N 14°36' W 061°04'0 0.0
2019-Feb-21 12:58N 14°36' W 061°04'0 0.0
2019-Feb-21 12:28N 14°36' W 061°04'0 0.0
2019-Feb-21 11:58N 14°36' W 061°04'0 0.0
2019-Feb-21 11:28N 14°36' W 061°04'1 1.6
2019-Feb-21 11:00N 14°35' W 061°04'4 8.8
2019-Feb-21 10:30N 14°35' W 061°08'610.8
2019-Feb-21 09:57N 14°35' W 061°15'510.3
2019-Feb-21 09:28N 14°35' W 061°20'511.3
2019-Feb-21 09:01N 14°35' W 061°25'611.6
2019-Feb-21 08:29N 14°35' W 061°31'2111.5
2019-Feb-21 06:38N 14°35' W 061°53'46 6.7
2019-Feb-20 23:48N 14°02' W 061°20'311.5
2019-Feb-20 23:30N 14°02' W 061°16'611.4
2019-Feb-20 23:00N 14°02' W 061°10'611.6
2019-Feb-20 22:29N 14°02' W 061°04'4 9.0
2019-Feb-20 22:00N 14°01' W 060°60'0 0.5
2019-Feb-20 21:20N 14°01' W 060°60'0 0.0
2019-Feb-20 20:59N 14°01' W 060°60'0 0.0
2019-Feb-20 20:23N 14°01' W 060°60'0 0.0
2019-Feb-20 19:47N 14°01' W 060°60'0 0.0
2019-Feb-20 19:17N 14°01' W 060°60'0 0.0
2019-Feb-20 18:41N 14°01' W 060°60'0 0.0
2019-Feb-20 18:29N 14°01' W 060°60'0 0.0
2019-Feb-20 17:53N 14°01' W 060°60'0 0.0
2019-Feb-20 17:23N 14°01' W 060°60'0 0.0
2019-Feb-20 16:56N 14°01' W 060°60'0 0.0
2019-Feb-20 16:30N 14°01' W 060°60'0 0.0
2019-Feb-20 16:00N 14°01' W 060°60'0 0.0
2019-Feb-20 15:30N 14°01' W 060°60'0 0.0
2019-Feb-20 14:59N 14°01' W 060°60'0 0.0
2019-Feb-20 14:30N 14°01' W 060°60'0 0.0
2019-Feb-20 14:00N 14°01' W 060°60'0 0.0
2019-Feb-20 13:30N 14°01' W 060°60'0 0.0
2019-Feb-20 13:00N 14°01' W 060°60'0 0.0
2019-Feb-20 12:30N 14°01' W 060°60'0 0.0
2019-Feb-20 11:59N 14°01' W 060°60'0 0.0
2019-Feb-20 11:30N 14°01' W 060°60'0 0.0
2019-Feb-20 11:00N 14°01' W 060°60'0 0.3
2019-Feb-20 10:30N 14°01' W 060°60'3 5.1
2019-Feb-20 10:00N 14°02' W 061°02'4 7.7
2019-Feb-20 09:30N 14°03' W 061°06'611.3
2019-Feb-20 09:00N 14°01' W 061°12'32 8.0
2019-Feb-20 05:01N 13°33' W 060°56'013.7
2019-Feb-20 05:00N 13°33' W 060°56'  
2019-Feb-16 11:39N 14°33' W 061°46'512.2
2019-Feb-16 11:17N 14°38' W 061°46'40 1.1
2019-Feb-14 22:01N 14°36' W 061°04'0 6.0
2019-Feb-14 21:59N 14°36' W 061°04'0 0.0
2019-Feb-14 11:05N 14°36' W 061°04'1 5.2
2019-Feb-14 10:53N 14°35' W 061°04'  

Dump ship's entire track history